Nearby METAR Reports


KSYR - Syracuse, New York, USA
Distance from station: SE 5mi, 8km
Updated: Mon, 11-Dec-2017 10:12am EST
Light snow, Mist, Overcast
Light snow, Mist, Overcast
 Wind from N
Wind: N 7 mph , 11 km/h
Temperature: 25°F , -4°C
Wind Chill: 17°F , -8°C
Dew Point: 21°F , -6°C
Humidity: 86%
Barometer: 30.03 inHg , 1016.9 hPa
Summary: Light snow, Mist
Clouds: Overcast
Visibility: 3 miles , 5 km
Cloud details: Few Clouds 2500 ft
Mostly cloudy 3500 ft
Overcast 4500 ft
2017/12/11 15:12 KSYR 111512Z 35006KT 3SM -SN BR FEW025 BKN035 OVC045 M04/M06 A3003 RMK AO2 P0000 T10441061 $
KFZY - Fulton, New York, USA
Distance from station: NW 17mi, 27km
Updated: Mon, 11-Dec-2017 10:12am EST
Light snow, Overcast
Light snow, Overcast
 Wind from NNW
Wind: NNW 12 mph , 19 km/h
Temperature: 25°F , -4°C
Wind Chill: 14°F , -10°C
Dew Point: 18°F , -8°C
Humidity: 74%
Barometer: 30.03 inHg , 1016.9 hPa
Summary: Light Snow
Clouds: Overcast
Visibility: 1 3/4 miles , 2.8 km
Cloud details: Few Clouds 1800 ft
Mostly cloudy 2600 ft
Overcast 3400 ft
2017/12/11 15:12 KFZY 111512Z AUTO 33010KT 1 3/4SM -SN FEW018 BKN026 OVC034 M04/M08 A3003 RMK AO2 P0000 T10391078
 
KRME - Rome/Griffiss Af, New York, USA
Distance from station: E 39mi, 62km
Updated: Mon, 11-Dec-2017 10:03am EST
Light snow, Mist, Overcast
Light snow, Mist, Overcast
 Wind from NW
Wind: NW 5 mph , 7 km/h
Temperature: 25°F , -4°C
Wind Chill: 19°F , -7°C
Dew Point: 21°F , -6°C
Humidity: 86%
Barometer: 30.03 inHg , 1016.9 hPa
Summary: Light snow, Mist
Clouds: Overcast
Visibility: 1 1/4 miles , 2 km
Cloud details: Overcast 1700 ft
2017/12/11 15:03 KRME 111503Z 32004KT 1 1/4SM -SN BR OVC017 M04/M06 A3003 RMK AO2 P0000 T10391061
KITH - Ithaca/Tompkins, New York, USA
Distance from station: SSW 51mi, 82km
Updated: Mon, 11-Dec-2017 9:56am EST
Light snow, Mist, Overcast
Light snow, Mist, Overcast
 Wind from WNW
Wind: WNW 9 mph , 15 km/h
Temperature: 28°F , -2°C
Wind Chill: 19°F , -7°C
Dew Point: 25°F , -4°C
Humidity: 86%
Barometer: 29.98 inHg , 1015.2 hPa
Summary: Light snow, Mist
Clouds: Overcast
Visibility: 6 miles , 10 km
Cloud details: Mostly cloudy 900 ft
Overcast 4700 ft
2017/12/11 14:56 KITH 111456Z 29008KT 6SM -SN BR BKN009 OVC047 M02/M04 A2998 RMK AO2 SLP167 P0000 60000 T10221044 53016
 
KART - Watertown, New York, USA
Distance from station: N 56mi, 91km
Updated: Mon, 11-Dec-2017 9:56am EST
Overcast
Overcast
 Wind from NNE
Wind: NNE 6 mph , 9 km/h
Temperature: 18°F , -8°C
Wind Chill: 10°F , -12°C
Dew Point: 10°F , -12°C
Humidity: 73%
Barometer: 30.06 inHg , 1017.9 hPa
Clouds: Overcast
Visibility: 10 miles , 16 km
Cloud details: Overcast 5500 ft
2017/12/11 14:56 KART 111456Z AUTO 03005KT 10SM OVC055 M08/M12 A3006 RMK AO2 SLP185 T10781117 53020
KPEO - Penn Yan, New York, USA
Distance from station: SW 58mi, 93km
Updated: Mon, 11-Dec-2017 9:53am EST
Light snow, Overcast
Light snow, Overcast
 Wind from WNW
Wind: WNW 6 mph , 9 km/h
Temperature: 28°F , -2°C
Wind Chill: 21°F , -6°C
Dew Point: 23°F , -5°C
Humidity: 80%
Barometer: 30.00 inHg , 1015.9 hPa
Summary: Light Snow
Clouds: Overcast
Visibility: 4 miles , 6 km
Cloud details: Partly cloudy 1400 ft
Overcast 5000 ft
2017/12/11 14:53 KPEO 111453Z AUTO 30005KT 4SM -SN SCT014 OVC050 M02/M05 A3000 RMK AO2 SLP172 P0000 60000 T10221050 53018
 
KGTB - Fort Drum/Wheele, New York, USA
Distance from station: NNE 64mi, 102km
Updated: Mon, 11-Dec-2017 9:56am EST
Overcast
Overcast
 Wind from N
Wind: N 3 mph , 6 km/h
Temperature: 16°F , -9°C
Dew Point: 9°F , -13°C
Humidity: 73%
Barometer: 30.01 inHg , 1016.3 hPa
Clouds: Overcast
Visibility: 10 miles , 16 km
Cloud details: Overcast 3200 ft
2017/12/11 14:56 KGTB 111456Z AUTO 01003KT 10SM OVC032 M09/M13 A3001 RMK AO2 SLP174 T10931131 52019
CWQP - Point Petre (mar, Ontario, Canada
Distance from station: NW 67mi, 107km
Updated: Mon, 11-Dec-2017 10:00am EST

 Wind from N
Wind: N 9 mph , 15 km/h
Temperature: 19°F , -7°C
Wind Chill: 8°F , -13°C
Dew Point: 7°F , -14°C
Humidity: 58%
2017/12/11 15:00 CWQP 111500Z AUTO 01008KT M07/M14 RMK AO1 SOG 02 2018 SLP185 T10731138
 
KBGM - Binghamton, New York, USA
Distance from station: S 67mi, 107km
Updated: Mon, 11-Dec-2017 9:53am EST
Light snow, Overcast
Light snow, Overcast
 Wind from W
Wind: W 10 mph , 17 km/h
Temperature: 27°F , -3°C
Wind Chill: 18°F , -8°C
Dew Point: 21°F , -6°C
Humidity: 80%
Barometer: 29.94 inHg , 1013.9 hPa
Summary: Light Snow
Clouds: Overcast
Visibility: 5 miles , 8 km
Cloud details: Partly cloudy 1300 ft
Mostly cloudy 3200 ft
Overcast 5000 ft
2017/12/11 14:53 KBGM 111453Z 27009KT 5SM -SN SCT013 BKN032 OVC050 M03/M06 A2994 RMK AO2 SNB1355 SLP159 P0000 60000 T10331061 53014
CYGK - Kingston Arpt (m, Ontario, Canada
Distance from station: NNW 75mi, 121km
Updated: Mon, 11-Dec-2017 10:00am EST
Partly cloudy
Partly cloudy
 Wind from N
Wind: N 6 mph , 9 km/h
Temperature: 16°F , -9°C
Wind Chill: 7°F , -14°C
Dew Point: 7°F , -14°C
Humidity: 67%
Barometer: 30.06 inHg , 1017.9 hPa
Clouds: Partly cloudy
Visibility: 15 miles , 24 km
Cloud details: Few Clouds 1000 ft
Few Clouds 5000 ft
Few Clouds 12000 ft
Partly cloudy 25000 ft
2017/12/11 15:00 CYGK 111500Z 35005KT 15SM FEW010 FEW050 FEW120 SCT250 M09/M14 A3006 RMK SF1SC1AC1CI4 SF TR SC TR AC TR SLP187